Time;durP1;ratioP1;P1;durP2;ratioP2;P2;SDS_P1;SDS_P2;PMS_P1;PMS_P2;Temp;Humidity;BMP_temperature;BMP_pressure;BME280_temperature;BME280_humidity;BME280_pressure;Samples;Min_cycle;Max_cycle;Signal;HPM_P1;HPM_P2
2023/07/14 00:01:26;;;;;;;6.57;4.22;;;17.10;99.90;;;;;;6309657;22;20044;-88
2023/07/14 00:03:53;;;;;;;7.13;3.40;;;17.00;99.90;;;;;;6337159;22;20093;-88
2023/07/14 00:06:19;;;;;;;6.60;3.55;;;17.00;99.90;;;;;;6336689;22;20124;-88
2023/07/14 00:08:45;;;;;;;7.53;4.43;;;17.00;99.90;;;;;;6310094;22;20079;-88
2023/07/14 00:11:22;;;;;;;6.20;3.38;;;17.00;99.90;;;;;;6307426;22;20418;-88
2023/07/14 00:13:51;;;;;;;9.80;4.50;;;17.00;99.90;;;;;;6309967;22;20036;-88
2023/07/14 00:16:27;;;;;;;10.48;4.90;;;16.90;99.90;;;;;;6308322;22;20042;-88
2023/07/14 00:18:53;;;;;;;9.23;4.70;;;16.90;99.90;;;;;;6307719;22;20504;-88
2023/07/14 00:21:22;;;;;;;10.23;6.38;;;16.80;99.90;;;;;;6282237;22;20018;-88
2023/07/14 00:23:48;;;;;;;7.00;4.07;;;16.70;99.90;;;;;;6309304;22;20025;-88
2023/07/14 00:26:17;;;;;;;10.40;5.85;;;16.60;99.90;;;;;;6337151;22;20045;-88
2023/07/14 00:28:43;;;;;;;9.52;5.65;;;16.60;99.90;;;;;;6308669;22;20015;-88
2023/07/14 00:31:13;;;;;;;10.75;5.40;;;16.60;99.90;;;;;;6338672;22;20015;-85
2023/07/14 00:33:39;;;;;;;8.35;4.97;;;16.50;99.90;;;;;;6311569;22;20029;-86
2023/07/14 00:36:06;;;;;;;9.30;4.95;;;16.50;99.90;;;;;;6340216;22;20007;-87
2023/07/14 00:38:34;;;;;;;7.55;5.22;;;16.50;99.90;;;;;;6338580;22;20319;-87
2023/07/14 00:41:01;;;;;;;10.00;5.25;;;16.50;99.90;;;;;;6310538;22;20023;-87
2023/07/14 00:43:29;;;;;;;10.95;5.78;;;16.50;99.90;;;;;;6311781;22;20391;-86
2023/07/14 00:45:56;;;;;;;10.23;6.22;;;16.50;99.90;;;;;;6338921;22;20774;-85
2023/07/14 00:48:25;;;;;;;10.38;7.03;;;16.50;99.90;;;;;;6338767;22;20019;-86
2023/07/14 00:51:14;;;;;;;10.02;6.28;;;16.50;99.90;;;;;;6339921;22;20038;-86
2023/07/14 00:53:43;;;;;;;9.50;5.82;;;16.40;99.90;;;;;;6338056;22;20071;-86
2023/07/14 00:56:14;;;;;;;9.48;6.88;;;16.40;99.90;;;;;;6339754;22;20021;-87
2023/07/14 00:58:49;;;;;;;10.77;6.38;;;16.40;99.90;;;;;;6340038;22;20026;-86
2023/07/14 01:01:21;;;;;;;;;;;16.30;99.90;;;;;;6311344;22;20072;-86
2023/07/14 01:03:55;;;;;;;15.18;8.30;;;16.30;99.90;;;;;;6338926;22;19917;-86
2023/07/14 01:06:26;;;;;;;14.07;8.13;;;16.20;99.90;;;;;;6311244;22;20026;-86
2023/07/14 01:09:01;;;;;;;13.80;8.90;;;16.10;99.90;;;;;;6310402;22;20249;-86
2023/07/14 01:11:35;;;;;;;12.63;8.63;;;16.00;99.90;;;;;;6311328;22;20042;-86
2023/07/14 01:14:06;;;;;;;13.15;9.35;;;16.00;99.90;;;;;;6338082;22;20058;-87
2023/07/14 01:16:35;;;;;;;10.70;8.00;;;15.90;99.90;;;;;;6311311;22;20010;-86
2023/07/14 01:19:07;;;;;;;10.73;7.68;;;15.90;99.90;;;;;;6310443;22;20007;-86
2023/07/14 01:21:34;;;;;;;14.13;9.85;;;15.80;99.90;;;;;;6284948;22;20011;-86
2023/07/14 01:23:59;;;;;;;12.55;9.27;;;15.70;99.90;;;;;;6310672;22;20403;-86
2023/07/14 01:27:04;;;;;;;15.50;9.45;;;15.80;99.90;;;;;;6310452;22;20050;-87
2023/07/14 01:29:32;;;;;;;14.65;10.13;;;15.70;99.90;;;;;;6185020;23;20099;-87
2023/07/14 01:31:58;;;;;;;14.18;9.82;;;15.70;99.90;;;;;;6184152;23;20308;-87
2023/07/14 01:34:24;;;;;;;14.27;9.93;;;15.70;99.90;;;;;;6184324;23;20070;-86
2023/07/14 01:36:56;;;;;;;11.43;9.00;;;15.70;99.90;;;;;;6209912;23;20020;-86
2023/07/14 01:39:22;;;;;;;12.25;9.32;;;15.70;99.90;;;;;;6210943;23;20014;-87
2023/07/14 01:41:48;;;;;;;15.02;10.65;;;15.60;99.90;;;;;;6212450;23;20462;-87
2023/07/14 01:44:17;;;;;;;15.70;10.90;;;15.70;99.90;;;;;;6211253;23;20117;-86
2023/07/14 01:46:44;;;;;;;14.40;11.13;;;15.60;99.90;;;;;;6186872;23;20009;-86
2023/07/14 01:49:16;;;;;;;14.18;10.00;;;15.60;99.90;;;;;;6211718;23;20016;-87
2023/07/14 01:51:45;;;;;;;13.80;10.48;;;15.60;99.90;;;;;;6211403;23;20017;-87
2023/07/14 01:54:23;;;;;;;15.10;10.40;;;15.50;99.90;;;;;;6187418;23;20055;-86
2023/07/14 01:56:50;;;;;;;15.63;10.60;;;15.50;99.90;;;;;;6185482;23;20017;-86
2023/07/14 01:59:28;;;;;;;15.68;10.73;;;15.50;99.90;;;;;;6210762;23;20021;-87
2023/07/14 02:01:59;;;;;;;13.68;10.50;;;15.50;99.90;;;;;;6211530;23;20012;-87
2023/07/14 02:04:29;;;;;;;13.85;9.55;;;15.50;99.90;;;;;;6327552;22;20014;-86
2023/07/14 02:06:58;;;;;;;15.25;10.00;;;15.50;99.90;;;;;;6283613;22;20507;-86
2023/07/14 02:09:26;;;;;;;16.98;10.48;;;15.50;99.90;;;;;;6310424;22;20049;-86
2023/07/14 02:11:55;;;;;;;15.65;10.18;;;15.50;99.90;;;;;;6283863;22;20015;-87
2023/07/14 02:14:24;;;;;;;15.18;10.57;;;15.50;99.90;;;;;;6335026;22;20479;-86
2023/07/14 02:16:57;;;;;;;13.77;9.75;;;15.50;99.90;;;;;;6335157;22;20082;-87
2023/07/14 02:19:26;;;;;;;15.13;10.87;;;15.50;99.90;;;;;;6278757;22;20046;-86
2023/07/14 02:21:55;;;;;;;16.67;10.45;;;15.50;99.90;;;;;;6306007;22;20018;-86
2023/07/14 02:24:27;;;;;;;18.27;11.45;;;15.40;99.90;;;;;;6309262;22;20021;-86
2023/07/14 02:27:02;;;;;;;13.90;10.57;;;15.40;99.90;;;;;;6336952;22;20011;-87
2023/07/14 02:29:29;;;;;;;20.30;11.48;;;15.40;99.90;;;;;;6308703;22;20022;-87
2023/07/14 02:32:27;;;;;;;15.60;11.13;;;15.40;99.90;;;;;;6307293;22;20047;-86
2023/07/14 02:35:04;;;;;;;14.32;11.05;;;15.40;99.90;;;;;;6307087;22;20056;-87
2023/07/14 02:38:07;;;;;;;14.63;11.00;;;15.40;99.90;;;;;;6307212;22;20015;-87
2023/07/14 02:40:43;;;;;;;17.48;9.90;;;15.40;99.90;;;;;;6334978;22;20052;-87
2023/07/14 02:43:16;;;;;;;15.43;11.73;;;15.40;99.90;;;;;;6336067;22;20018;-86
2023/07/14 02:46:13;;;;;;;16.23;11.07;;;15.40;99.90;;;;;;6306937;22;20026;-87
2023/07/14 02:48:42;;;;;;;13.75;9.90;;;15.40;99.90;;;;;;6279996;22;20053;-86
2023/07/14 02:51:09;;;;;;;12.68;9.82;;;15.30;99.90;;;;;;6335142;22;20108;-87
2023/07/14 02:53:35;;;;;;;17.23;9.32;;;15.30;99.90;;;;;;6308006;22;20092;-87
2023/07/14 02:56:02;;;;;;;16.10;10.60;;;15.20;99.90;;;;;;6336313;22;20015;-87
2023/07/14 02:58:28;;;;;;;15.82;10.77;;;15.20;99.90;;;;;;6309314;22;20026;-87
2023/07/14 03:00:54;;;;;;;13.15;10.10;;;15.20;99.90;;;;;;6308194;22;20011;-86
2023/07/14 03:03:23;;;;;;;18.50;11.95;;;15.20;99.90;;;;;;6335229;22;20333;-87
2023/07/14 03:05:51;;;;;;;15.85;9.85;;;15.20;99.90;;;;;;6306405;22;20457;-86
2023/07/14 03:08:17;;;;;;;19.35;11.57;;;15.20;99.90;;;;;;6333409;22;20014;-87
2023/07/14 03:10:45;;;;;;;18.02;11.60;;;15.20;99.90;;;;;;6307090;22;20086;-87
2023/07/14 03:13:11;;;;;;;17.50;11.77;;;15.10;99.90;;;;;;6336346;22;20007;-87
2023/07/14 03:15:37;;;;;;;14.43;9.90;;;15.10;99.90;;;;;;6334789;22;20011;-87
2023/07/14 03:18:03;;;;;;;13.70;10.18;;;15.10;99.90;;;;;;6334154;22;20100;-86
2023/07/14 03:20:29;;;;;;;15.98;11.73;;;15.10;99.90;;;;;;6335231;22;20021;-87
2023/07/14 03:22:55;;;;;;;16.25;11.32;;;15.10;99.90;;;;;;6282057;22;20090;-86
2023/07/14 03:25:21;;;;;;;19.30;10.95;;;15.10;99.90;;;;;;6336224;22;20042;-86
2023/07/14 03:27:50;;;;;;;13.73;10.27;;;15.10;99.90;;;;;;6334978;22;20465;-87
2023/07/14 03:30:16;;;;;;;13.98;10.95;;;15.10;99.90;;;;;;6306391;22;20059;-86
2023/07/14 03:32:42;;;;;;;14.20;9.57;;;15.10;99.90;;;;;;6333374;22;20042;-87
2023/07/14 03:35:08;;;;;;;13.98;9.18;;;15.10;99.90;;;;;;6307175;22;20022;-87
2023/07/14 03:37:34;;;;;;;13.73;10.38;;;15.10;99.90;;;;;;6277273;22;20092;-87
2023/07/14 03:40:05;;;;;;;13.10;10.38;;;15.10;99.90;;;;;;6305643;22;20014;-87
2023/07/14 03:42:31;;;;;;;14.35;10.68;;;15.10;99.90;;;;;;6332095;22;20389;-87
2023/07/14 03:44:59;;;;;;;13.65;9.65;;;15.10;99.90;;;;;;6306673;22;20018;-87
2023/07/14 03:47:26;;;;;;;14.02;9.77;;;15.10;99.90;;;;;;6305179;22;20341;-87
2023/07/14 03:49:52;;;;;;;13.60;9.90;;;15.10;99.90;;;;;;6304231;22;20010;-87
2023/07/14 03:52:18;;;;;;;13.77;10.93;;;15.10;99.90;;;;;;6334055;22;20187;-87
2023/07/14 03:54:44;;;;;;;12.98;8.48;;;15.10;99.90;;;;;;6304404;22;20022;-86
2023/07/14 03:57:10;;;;;;;14.75;9.20;;;15.10;99.90;;;;;;6334897;22;20112;-87
2023/07/14 03:59:36;;;;;;;16.52;10.88;;;15.10;99.90;;;;;;6305133;22;20376;-86
2023/07/14 04:02:01;;;;;;;13.48;9.93;;;15.10;99.90;;;;;;6334499;22;20041;-87
2023/07/14 04:04:29;;;;;;;17.33;10.55;;;15.10;99.90;;;;;;6308955;22;20007;-87
2023/07/14 04:06:55;;;;;;;14.95;10.13;;;15.00;99.90;;;;;;6336633;22;20042;-87
2023/07/14 04:09:32;;;;;;;17.20;10.77;;;15.00;99.90;;;;;;6282619;22;20018;-87
2023/07/14 04:11:58;;;;;;;14.00;9.52;;;14.90;99.90;;;;;;6308280;22;20148;-87
2023/07/14 04:14:24;;;;;;;15.15;9.93;;;14.90;99.90;;;;;;6336032;22;20038;-87
2023/07/14 04:16:50;;;;;;;16.13;9.55;;;14.90;99.90;;;;;;6307547;22;20125;-87
2023/07/14 04:19:15;;;;;;;14.65;8.25;;;14.90;99.90;;;;;;6333631;22;20038;-87
2023/07/14 04:21:41;;;;;;;14.45;9.93;;;14.90;99.90;;;;;;6280890;22;20011;-87
2023/07/14 04:24:07;;;;;;;14.25;9.25;;;14.90;99.90;;;;;;6335643;22;20015;-90
2023/07/14 04:26:33;;;;;;;12.27;8.85;;;14.90;99.90;;;;;;6309732;22;20021;-86
2023/07/14 04:28:59;;;;;;;14.27;9.77;;;14.90;99.90;;;;;;6309398;22;20056;-87
2023/07/14 04:31:25;;;;;;;12.32;8.68;;;14.90;99.90;;;;;;6308798;22;20011;-86
2023/07/14 04:33:54;;;;;;;15.27;10.07;;;14.90;99.90;;;;;;6308789;22;20364;-85
2023/07/14 04:36:20;;;;;;;15.90;9.07;;;14.90;99.90;;;;;;6283083;22;20023;-86
2023/07/14 04:39:05;;;;;;;17.45;9.05;;;14.90;99.90;;;;;;6336871;22;20015;-86
2023/07/14 04:41:32;;;;;;;22.80;10.02;;;14.90;99.90;;;;;;6306697;22;20018;-86
2023/07/14 04:44:01;;;;;;;19.00;9.60;;;14.90;99.90;;;;;;6308710;22;20022;-85
2023/07/14 04:46:26;;;;;;;12.25;9.13;;;14.90;99.90;;;;;;6305669;22;20433;-86
2023/07/14 04:48:53;;;;;;;15.88;9.02;;;14.90;99.90;;;;;;6308844;22;20065;-86
2023/07/14 04:51:19;;;;;;;13.70;8.32;;;14.90;99.90;;;;;;6334312;22;20015;-87
2023/07/14 04:53:45;;;;;;;12.43;7.60;;;14.90;99.90;;;;;;6307779;22;20418;-86
2023/07/14 04:56:11;;;;;;;18.25;8.30;;;15.00;99.90;;;;;;6311050;22;20063;-86
2023/07/14 04:58:37;;;;;;;13.70;6.93;;;15.00;99.90;;;;;;6284881;22;20088;-86
2023/07/14 05:01:03;;;;;;;17.30;8.52;;;15.00;99.90;;;;;;6336495;22;20019;-86
2023/07/14 05:03:29;;;;;;;12.57;8.18;;;15.00;99.90;;;;;;6307809;22;20019;-86
2023/07/14 05:05:54;;;;;;;12.25;7.88;;;15.00;99.90;;;;;;6336360;22;20045;-86
2023/07/14 05:08:20;;;;;;;11.02;7.57;;;15.00;99.90;;;;;;6307762;22;20015;-86
2023/07/14 05:10:46;;;;;;;16.50;8.00;;;15.10;99.90;;;;;;6308217;22;20031;-86
2023/07/14 05:13:13;;;;;;;14.10;7.15;;;15.10;99.90;;;;;;6308263;22;20499;-86
2023/07/14 05:15:43;;;;;;;12.93;7.82;;;15.10;99.90;;;;;;6335044;22;20089;-86
2023/07/14 05:18:09;;;;;;;10.65;6.43;;;15.20;99.90;;;;;;6335172;22;20045;-86
2023/07/14 05:20:36;;;;;;;13.40;7.85;;;15.20;99.90;;;;;;6336010;22;20014;-87
2023/07/14 05:23:05;;;;;;;13.55;6.90;;;15.30;99.90;;;;;;6334856;22;20413;-87
2023/07/14 05:25:31;;;;;;;10.95;7.85;;;15.50;99.90;;;;;;6308131;22;20018;-88
2023/07/14 05:27:57;;;;;;;10.93;6.55;;;15.30;99.90;;;;;;6279329;22;20013;-87
2023/07/14 05:30:23;;;;;;;13.52;7.05;;;15.30;99.90;;;;;;6335329;22;20014;-90
2023/07/14 05:32:50;;;;;;;13.23;6.95;;;15.40;99.90;;;;;;6334177;22;20015;-89
2023/07/14 05:35:17;;;;;;;12.65;7.65;;;15.40;99.90;;;;;;6306764;22;20046;-86
2023/07/14 05:37:46;;;;;;;12.20;7.28;;;15.40;99.90;;;;;;6304535;22;20072;-84
2023/07/14 05:40:16;;;;;;;14.05;7.18;;;15.50;99.90;;;;;;6333436;22;20038;-84
2023/07/14 05:42:42;;;;;;;10.60;6.03;;;15.50;99.90;;;;;;6304889;22;20015;-84
2023/07/14 05:45:14;;;;;;;14.82;7.57;;;15.50;99.90;;;;;;6333144;22;20019;-84
2023/07/14 05:47:43;;;;;;;11.75;6.65;;;15.60;99.90;;;;;;6278700;22;20037;-84
2023/07/14 05:50:09;;;;;;;14.65;7.10;;;15.60;99.90;;;;;;6332889;22;20121;-82
2023/07/14 05:52:36;;;;;;;11.90;7.07;;;15.60;99.90;;;;;;6279212;22;20042;-83
2023/07/14 05:55:03;;;;;;;16.67;7.53;;;15.60;99.90;;;;;;6305317;22;20089;-82
2023/07/14 05:57:30;;;;;;;14.93;8.27;;;15.70;99.90;;;;;;6331092;22;20433;-81
2023/07/14 05:59:56;;;;;;;12.90;7.15;;;15.70;99.90;;;;;;6332827;22;20007;-81
2023/07/14 06:02:22;;;;;;;12.85;6.53;;;15.70;99.90;;;;;;6332440;22;20009;-81
2023/07/14 06:04:48;;;;;;;9.55;6.22;;;15.70;99.90;;;;;;6303632;22;20018;-82
2023/07/14 06:07:14;;;;;;;10.63;5.63;;;15.80;99.90;;;;;;6304827;22;20019;-82
2023/07/14 06:09:41;;;;;;;9.07;5.75;;;15.80;99.90;;;;;;6329899;22;20015;-82
2023/07/14 06:12:09;;;;;;;12.60;5.80;;;15.80;99.90;;;;;;6329826;22;20060;-81
2023/07/14 06:14:37;;;;;;;12.18;6.47;;;15.90;99.90;;;;;;6331676;22;20007;-81
2023/07/14 06:17:05;;;;;;;9.77;5.50;;;15.90;99.90;;;;;;6329141;22;20586;-81
2023/07/14 06:19:31;;;;;;;10.25;5.07;;;15.90;99.90;;;;;;6331581;22;20006;-81
2023/07/14 06:21:59;;;;;;;11.73;5.95;;;16.00;99.90;;;;;;6302368;22;20018;-81
2023/07/14 06:24:25;;;;;;;12.15;5.32;;;16.00;99.90;;;;;;6330950;22;20434;-83
2023/07/14 06:26:51;;;;;;;16.33;5.63;;;16.10;99.90;;;;;;6302078;22;20025;-80
2023/07/14 06:29:18;;;;;;;10.20;5.35;;;16.20;99.90;;;;;;6303453;22;20335;-82
2023/07/14 06:31:44;;;;;;;14.25;5.97;;;16.20;99.90;;;;;;6331090;22;20015;-85
2023/07/14 06:34:09;;;;;;;9.73;5.65;;;16.30;99.90;;;;;;6277787;22;20029;-82
2023/07/14 06:36:35;;;;;;;10.48;5.22;;;16.40;99.90;;;;;;6305218;22;20093;-83
2023/07/14 06:39:04;;;;;;;11.77;5.75;;;16.40;99.90;;;;;;6279421;22;20025;-83
2023/07/14 06:41:30;;;;;;;12.48;6.03;;;16.50;99.90;;;;;;6305602;22;20433;-83
2023/07/14 06:43:56;;;;;;;10.65;6.10;;;16.50;99.90;;;;;;6305890;22;20011;-84
2023/07/14 06:46:22;;;;;;;12.48;5.93;;;16.50;99.90;;;;;;6334296;22;20011;-83
2023/07/14 06:48:47;;;;;;;12.35;5.72;;;16.60;99.90;;;;;;6331721;22;20010;-84
2023/07/14 06:51:13;;;;;;;9.90;5.47;;;16.70;99.90;;;;;;6304240;22;20342;-83
2023/07/14 06:53:40;;;;;;;11.95;5.63;;;16.70;99.90;;;;;;6305606;22;20018;-84
2023/07/14 06:56:07;;;;;;;10.80;6.22;;;16.80;99.90;;;;;;6305182;22;20018;-82
2023/07/14 06:58:34;;;;;;;15.40;5.60;;;16.90;99.90;;;;;;6332877;22;20011;-82
2023/07/14 07:01:00;;;;;;;11.63;5.25;;;16.90;99.90;;;;;;6280141;22;20019;-83
2023/07/14 07:03:26;;;;;;;10.68;5.35;;;17.00;99.90;;;;;;6305693;22;20067;-83
2023/07/14 07:05:53;;;;;;;10.45;5.10;;;17.00;99.90;;;;;;6306216;22;20647;-82
2023/07/14 07:08:19;;;;;;;12.95;4.97;;;17.10;99.90;;;;;;6331620;22;20037;-81
2023/07/14 07:10:45;;;;;;;8.38;4.50;;;17.20;99.90;;;;;;6304571;22;20007;-84
2023/07/14 07:13:12;;;;;;;11.10;4.82;;;17.30;99.90;;;;;;6278999;22;20011;-83
2023/07/14 07:15:39;;;;;;;8.68;3.95;;;17.40;99.90;;;;;;6304082;22;20021;-83
2023/07/14 07:18:06;;;;;;;11.48;4.65;;;17.50;99.90;;;;;;6303856;22;20027;-82
2023/07/14 07:20:34;;;;;;;13.85;4.22;;;17.60;99.90;;;;;;6305196;22;20007;-82
2023/07/14 07:23:00;;;;;;;10.27;3.83;;;17.80;99.90;;;;;;6332581;22;20438;-81
2023/07/14 07:25:26;;;;;;;11.32;4.30;;;18.10;99.90;;;;;;6303930;22;20015;-82
2023/07/14 07:27:52;;;;;;;11.43;3.97;;;18.30;99.90;;;;;;6333714;22;20017;-82
2023/07/14 07:30:18;;;;;;;14.18;4.60;;;18.60;99.90;;;;;;6279604;22;20048;-82
2023/07/14 07:32:46;;;;;;;7.78;3.28;;;18.90;99.90;;;;;;6305037;22;20018;-81
2023/07/14 07:35:12;;;;;;;9.85;3.33;;;19.20;99.90;;;;;;6305609;22;20023;-82
2023/07/14 07:37:38;;;;;;;8.32;2.97;;;19.40;99.90;;;;;;6307703;22;20019;-81
2023/07/14 07:40:06;;;;;;;8.50;3.10;;;19.70;99.90;;;;;;6306388;22;20037;-82
2023/07/14 07:42:34;;;;;;;7.72;3.40;;;19.80;99.90;;;;;;6335428;22;20078;-81
2023/07/14 07:45:00;;;;;;;5.63;3.10;;;20.00;99.90;;;;;;6306743;22;20437;-82
2023/07/14 07:47:26;;;;;;;6.95;2.55;;;20.10;99.90;;;;;;6281372;22;20014;-82
2023/07/14 07:49:52;;;;;;;5.05;2.78;;;20.20;99.90;;;;;;6305766;22;20017;-81
2023/07/14 07:52:18;;;;;;;7.20;3.03;;;20.40;99.90;;;;;;6334135;22;20057;-82
2023/07/14 07:54:44;;;;;;;7.30;3.20;;;20.40;99.90;;;;;;6333544;22;20078;-82
2023/07/14 07:57:11;;;;;;;10.55;3.50;;;20.50;99.90;;;;;;6307543;22;20068;-82
2023/07/14 07:59:37;;;;;;;7.13;3.42;;;20.50;99.90;;;;;;6334946;22;20014;-82
2023/07/14 08:02:03;;;;;;;8.52;3.20;;;20.60;99.90;;;;;;6306396;22;20006;-82
2023/07/14 08:04:29;;;;;;;10.15;3.80;;;20.60;99.90;;;;;;6306805;22;20028;-84
2023/07/14 08:06:55;;;;;;;7.78;3.67;;;20.70;99.90;;;;;;6306113;22;20085;-83
2023/07/14 08:09:21;;;;;;;12.85;3.80;;;20.80;99.90;;;;;;6305057;22;20461;-81
2023/07/14 08:11:47;;;;;;;12.05;4.15;;;20.80;99.90;;;;;;6334592;22;20010;-82
2023/07/14 08:14:18;;;;;;;8.45;3.28;;;21.00;99.90;;;;;;6306864;22;20017;-82
2023/07/14 08:16:44;;;;;;;7.18;3.20;;;21.00;99.90;;;;;;6281497;22;20128;-82
2023/07/14 08:19:10;;;;;;;5.90;3.00;;;20.80;99.90;;;;;;6335087;22;20010;-81
2023/07/14 08:21:38;;;;;;;9.65;3.13;;;20.70;99.90;;;;;;6333717;22;20078;-82
2023/07/14 08:24:05;;;;;;;8.68;3.65;;;20.50;99.90;;;;;;6306435;22;20022;-82
2023/07/14 08:26:35;;;;;;;6.75;3.03;;;20.20;99.90;;;;;;6335212;22;20021;-82
2023/07/14 08:29:01;;;;;;;8.98;4.30;;;20.10;99.90;;;;;;6306804;22;20338;-82
2023/07/14 08:31:27;;;;;;;10.30;3.20;;;20.10;99.90;;;;;;6307414;22;20007;-82
2023/07/14 08:33:53;;;;;;;7.25;3.38;;;20.20;99.90;;;;;;6305841;22;20430;-82
2023/07/14 08:36:19;;;;;;;4.72;2.78;;;20.40;99.90;;;;;;6305137;22;20353;-82
2023/07/14 08:38:45;;;;;;;5.22;2.92;;;20.50;99.90;;;;;;6303836;22;20093;-82
2023/07/14 08:41:36;;;;;;;6.47;2.72;;;20.60;99.90;;;;;;6332345;22;20010;-82
2023/07/14 08:44:17;;;;;;;7.80;3.42;;;20.90;99.90;;;;;;6307047;22;20438;-81
2023/07/14 08:47:06;;;;;;;6.32;2.70;;;21.10;99.90;;;;;;6306478;22;20014;-82
2023/07/14 08:49:53;;;;;;;4.50;2.03;;;21.30;99.90;;;;;;6285560;22;20085;-82
2023/07/14 08:52:26;;;;;;;5.65;2.55;;;21.40;99.90;;;;;;6306142;22;20098;-82
2023/07/14 08:55:21;;;;;;;7.57;3.72;;;21.40;99.90;;;;;;6334793;22;20090;-82
2023/07/14 08:58:13;;;;;;;;;;;21.30;99.90;;;;;;6330207;22;20050;-81
2023/07/14 09:00:44;;;;;;;5.63;1.90;;;21.30;99.90;;;;;;6286229;22;19925;-82
2023/07/14 09:03:16;;;;;;;5.13;1.73;;;21.30;99.90;;;;;;6333430;22;20007;-82
2023/07/14 09:05:58;;;;;;;5.80;2.20;;;21.40;99.90;;;;;;6305900;22;20018;-82
2023/07/14 09:08:27;;;;;;;4.45;1.75;;;21.50;99.90;;;;;;6334925;22;20064;-82
2023/07/14 09:10:56;;;;;;;5.78;2.08;;;21.50;99.90;;;;;;6306512;22;20030;-82
2023/07/14 09:13:42;;;;;;;8.95;2.45;;;21.60;99.90;;;;;;6334997;22;20212;-81
2023/07/14 09:16:10;;;;;;;5.57;2.30;;;21.70;99.90;;;;;;6331849;22;20033;-81
2023/07/14 09:19:06;;;;;;;5.47;2.10;;;21.80;99.90;;;;;;6305424;22;20428;-81
2023/07/14 09:21:48;;;;;;;5.38;2.35;;;22.00;99.90;;;;;;6290146;22;20082;-82
2023/07/14 09:24:19;;;;;;;5.18;1.95;;;22.10;99.80;;;;;;6304752;22;20014;-82
2023/07/14 09:26:56;;;;;;;3.75;1.80;;;22.30;99.90;;;;;;6306624;22;20022;-83
2023/07/14 09:29:40;;;;;;;4.13;1.83;;;22.40;97.80;;;;;;6280788;22;20150;-82
2023/07/14 09:32:30;;;;;;;7.00;2.17;;;22.50;99.10;;;;;;6334306;22;20018;-82
2023/07/14 09:35:00;;;;;;;6.50;2.00;;;22.70;99.90;;;;;;6333500;22;20021;-82
2023/07/14 09:37:52;;;;;;;6.68;1.85;;;22.80;97.70;;;;;;6279449;22;20094;-82
2023/07/14 09:40:23;;;;;;;5.00;1.63;;;22.90;98.20;;;;;;6306199;22;20030;-82
2023/07/14 09:42:51;;;;;;;4.85;1.67;;;22.90;98.90;;;;;;6333530;22;20025;-81
2023/07/14 09:45:20;;;;;;;6.75;1.90;;;23.10;99.10;;;;;;6305522;22;20014;-82
2023/07/14 09:47:52;;;;;;;7.07;2.20;;;23.20;99.00;;;;;;6305409;22;20085;-81
2023/07/14 09:50:19;;;;;;;5.78;2.00;;;23.20;98.90;;;;;;6305465;22;20006;-81
2023/07/14 09:52:54;;;;;;;5.55;1.83;;;23.20;98.70;;;;;;6305282;22;20018;-82
2023/07/14 09:55:20;;;;;;;5.85;2.28;;;23.10;98.00;;;;;;6306265;22;20477;-82
2023/07/14 09:57:49;;;;;;;6.05;2.30;;;23.00;99.00;;;;;;6304897;22;20086;-81
2023/07/14 10:00:28;;;;;;;5.38;2.00;;;22.80;98.80;;;;;;6305890;22;20441;-81
2023/07/14 10:03:06;;;;;;;6.57;2.00;;;22.80;98.90;;;;;;6333854;22;20057;-82
2023/07/14 10:05:43;;;;;;;6.82;2.40;;;22.80;98.80;;;;;;6280583;22;20018;-81
2023/07/14 10:08:35;;;;;;;6.43;2.03;;;22.90;98.90;;;;;;6333976;22;20015;-80
2023/07/14 10:11:27;;;;;;;4.82;2.45;;;23.00;98.40;;;;;;6333907;22;20056;-81
2023/07/14 10:14:00;;;;;;;7.20;2.20;;;22.90;98.00;;;;;;6333072;22;20524;-81
2023/07/14 10:16:28;;;;;;;5.25;2.13;;;23.00;98.40;;;;;;6333516;22;20010;-81
2023/07/14 10:19:00;;;;;;;5.55;2.40;;;23.10;97.90;;;;;;6333110;22;20049;-81
2023/07/14 10:21:34;;;;;;;5.40;2.10;;;23.10;97.60;;;;;;6332892;22;20006;-81
2023/07/14 10:24:01;;;;;;;;;;;23.20;97.80;;;;;;6279990;22;20014;-81
2023/07/14 10:26:30;;;;;;;4.65;1.85;;;23.20;97.20;;;;;;6306474;22;19914;-81
2023/07/14 10:28:56;;;;;;;5.72;2.00;;;23.30;97.90;;;;;;6305112;22;20578;-81
2023/07/14 10:31:42;;;;;;;7.35;2.10;;;23.40;98.00;;;;;;6333825;22;20010;-81
2023/07/14 10:34:27;;;;;;;5.35;2.40;;;23.60;96.50;;;;;;6333493;22;20060;-80
2023/07/14 10:36:57;;;;;;;5.90;2.35;;;23.60;96.30;;;;;;6305268;22;20011;-80
2023/07/14 10:39:35;;;;;;;7.45;2.28;;;23.70;97.40;;;;;;6333766;22;20368;-80
2023/07/14 10:42:03;;;;;;;5.38;2.40;;;23.70;97.10;;;;;;6304797;22;20085;-80
2023/07/14 10:44:34;;;;;;;6.03;2.30;;;23.70;97.00;;;;;;6333094;22;20011;-80
2023/07/14 10:47:11;;;;;;;6.45;2.13;;;23.70;96.40;;;;;;6332251;22;20014;-81
2023/07/14 10:49:41;;;;;;;6.68;2.38;;;23.70;96.90;;;;;;6305799;22;20046;-80
2023/07/14 10:52:23;;;;;;;5.93;2.15;;;23.80;96.70;;;;;;6305533;22;20067;-81
2023/07/14 10:54:56;;;;;;;5.72;2.15;;;23.90;96.90;;;;;;6333952;22;20071;-81
2023/07/14 10:57:42;;;;;;;6.15;2.35;;;23.90;96.70;;;;;;6305429;22;20018;-80
2023/07/14 11:00:19;;;;;;;7.18;2.88;;;23.90;97.50;;;;;;6333125;22;20083;-81
2023/07/14 11:02:51;;;;;;;7.10;2.50;;;23.80;96.70;;;;;;6331710;22;20014;-80
2023/07/14 11:05:21;;;;;;;7.22;2.38;;;23.70;96.30;;;;;;6305398;22;20030;-80
2023/07/14 11:07:47;;;;;;;7.35;2.47;;;23.70;97.10;;;;;;6305895;22;20019;-80
2023/07/14 11:10:18;;;;;;;5.22;2.42;;;23.70;96.90;;;;;;6333044;22;20346;-81
2023/07/14 11:12:53;;;;;;;6.60;3.05;;;23.80;97.20;;;;;;6333183;22;20011;-81
2023/07/14 11:15:25;;;;;;;5.45;2.25;;;23.80;96.40;;;;;;6305686;22;20010;-80
2023/07/14 11:17:57;;;;;;;6.90;2.88;;;23.70;97.00;;;;;;6304940;22;20445;-80
2023/07/14 11:20:34;;;;;;;5.45;2.30;;;23.50;96.30;;;;;;6333076;22;20067;-81
2023/07/14 11:23:04;;;;;;;7.75;2.67;;;23.40;97.50;;;;;;6304939;22;20085;-81
2023/07/14 11:25:33;;;;;;;6.43;2.45;;;23.30;97.40;;;;;;6305856;22;20015;-80
2023/07/14 11:28:11;;;;;;;5.43;2.63;;;23.30;97.50;;;;;;6304339;22;20345;-80
2023/07/14 11:30:42;;;;;;;5.78;2.55;;;23.30;98.20;;;;;;6303894;22;20086;-81
2023/07/14 11:33:25;;;;;;;5.95;2.38;;;23.30;97.90;;;;;;6303209;22;20042;-81
2023/07/14 11:35:58;;;;;;;6.50;2.95;;;23.40;96.80;;;;;;6279613;22;20018;-81
2023/07/14 11:38:46;;;;;;;6.35;2.63;;;23.50;97.60;;;;;;6304752;22;20015;-81
2023/07/14 11:41:14;;;;;;;6.32;2.60;;;23.50;97.10;;;;;;6305084;22;20103;-81
2023/07/14 11:43:41;;;;;;;8.88;3.00;;;23.70;97.40;;;;;;6304602;22;20019;-81
2023/07/14 11:46:09;;;;;;;7.00;2.42;;;23.70;97.10;;;;;;6332435;22;20014;-81
2023/07/14 11:48:43;;;;;;;5.68;2.35;;;23.70;96.30;;;;;;6332547;22;20038;-80
2023/07/14 11:51:13;;;;;;;;;;;23.60;96.60;;;;;;6332291;22;20359;-81
2023/07/14 11:53:42;;;;;;;5.82;2.17;;;23.60;96.80;;;;;;6305584;22;19953;-81
2023/07/14 11:56:24;;;;;;;4.70;2.10;;;23.60;97.00;;;;;;6332466;22;20022;-81
2023/07/14 11:59:03;;;;;;;7.45;2.65;;;23.70;96.60;;;;;;6305691;22;20109;-81
2023/07/14 12:01:28;;;;;;;6.00;2.75;;;23.80;97.00;;;;;;6331364;22;20021;-80
2023/07/14 12:04:28;;;;;;;8.02;2.58;;;23.80;97.10;;;;;;6304799;22;20094;-82
2023/07/14 12:07:18;;;;;;;6.85;3.13;;;23.80;96.70;;;;;;6305251;22;20018;-82
2023/07/14 12:10:12;;;;;;;6.53;2.80;;;23.80;96.50;;;;;;6304652;22;20014;-82
2023/07/14 12:12:39;;;;;;;6.20;2.47;;;23.70;96.90;;;;;;6313857;22;20019;-82
2023/07/14 12:15:47;;;;;;;6.35;2.50;;;23.80;96.90;;;;;;6332498;22;20025;-82
2023/07/14 12:18:27;;;;;;;8.95;2.75;;;23.70;96.50;;;;;;6278368;22;20569;-81
2023/07/14 12:21:21;;;;;;;7.20;2.28;;;23.70;96.90;;;;;;6279942;22;20015;-82
2023/07/14 12:23:53;;;;;;;9.48;2.58;;;23.80;96.00;;;;;;6306249;22;20068;-83
2023/07/14 12:26:39;;;;;;;5.82;2.17;;;23.80;95.80;;;;;;6306156;22;20461;-82
2023/07/14 12:29:14;;;;;;;8.70;2.22;;;23.80;96.60;;;;;;6279216;22;20021;-82
2023/07/14 12:31:41;;;;;;;5.15;2.47;;;23.70;96.70;;;;;;6306250;22;20019;-83
2023/07/14 12:34:15;;;;;;;5.15;2.38;;;23.60;96.60;;;;;;6305672;22;20021;-83
2023/07/14 12:36:42;;;;;;;;;;;23.50;96.90;;;;;;6335244;22;20019;-83
2023/07/14 12:39:09;;;;;;;5.95;2.88;;;23.50;97.30;;;;;;6334793;22;19918;-82
2023/07/14 12:41:39;;;;;;;7.60;3.03;;;23.40;97.50;;;;;;6334985;22;20011;-82
2023/07/14 12:44:16;;;;;;;7.38;2.90;;;23.50;97.60;;;;;;6280102;22;20011;-83
2023/07/14 12:46:41;;;;;;;6.07;2.50;;;23.50;97.00;;;;;;6306569;22;20438;-82
2023/07/14 12:49:32;;;;;;;5.85;2.28;;;23.50;97.50;;;;;;6334222;22;20009;-84
2023/07/14 12:52:03;;;;;;;9.15;2.85;;;23.60;97.20;;;;;;6333469;22;20084;-83
2023/07/14 12:54:29;;;;;;;6.75;3.03;;;23.40;96.70;;;;;;6334523;22;20033;-85
2023/07/14 12:56:58;;;;;;;6.10;2.85;;;23.30;97.20;;;;;;6306471;22;20018;-83
2023/07/14 12:59:24;;;;;;;6.82;2.90;;;23.10;97.60;;;;;;6305210;22;20502;-85